sensor_id;sensor_type;location;lat;lon;timestamp;P1;durP1;ratioP1;P2;durP2;ratioP2
20982;SDS011;10650;51.528;6.748;2023-07-08T20:04:21;11.18;;;8.50;;
20982;SDS011;10650;51.528;6.748;2023-07-08T20:06:49;8.95;;;8.05;;
20982;SDS011;10650;51.528;6.748;2023-07-08T20:09:17;14.73;;;10.98;;
20982;SDS011;10650;51.528;6.748;2023-07-08T20:11:45;10.38;;;8.93;;
20982;SDS011;10650;51.528;6.748;2023-07-08T20:14:14;10.52;;;8.45;;
20982;SDS011;10650;51.528;6.748;2023-07-08T20:16:42;9.38;;;7.80;;
20982;SDS011;10650;51.528;6.748;2023-07-08T20:19:17;9.23;;;7.72;;
20982;SDS011;10650;51.528;6.748;2023-07-08T20:21:53;8.13;;;7.32;;
20982;SDS011;10650;51.528;6.748;2023-07-08T20:24:21;8.75;;;7.38;;
20982;SDS011;10650;51.528;6.748;2023-07-08T20:26:49;8.57;;;7.05;;
20982;SDS011;10650;51.528;6.748;2023-07-08T20:29:17;8.52;;;7.13;;
20982;SDS011;10650;51.528;6.748;2023-07-08T20:31:45;8.25;;;6.88;;
20982;SDS011;10650;51.528;6.748;2023-07-08T20:34:13;11.45;;;7.15;;
20982;SDS011;10650;51.528;6.748;2023-07-08T20:36:44;9.13;;;6.90;;
20982;SDS011;10650;51.528;6.748;2023-07-08T20:39:13;7.10;;;6.20;;
20982;SDS011;10650;51.528;6.748;2023-07-08T20:41:47;7.43;;;6.07;;
20982;SDS011;10650;51.528;6.748;2023-07-08T20:44:15;8.82;;;6.18;;
20982;SDS011;10650;51.528;6.748;2023-07-08T20:46:42;7.43;;;6.43;;
20982;SDS011;10650;51.528;6.748;2023-07-08T20:49:15;8.82;;;6.72;;
20982;SDS011;10650;51.528;6.748;2023-07-08T20:51:44;7.60;;;6.20;;
20982;SDS011;10650;51.528;6.748;2023-07-08T20:54:13;8.75;;;6.38;;
20982;SDS011;10650;51.528;6.748;2023-07-08T20:56:41;8.60;;;6.22;;
20982;SDS011;10650;51.528;6.748;2023-07-08T20:59:13;9.07;;;6.35;;
20982;SDS011;10650;51.528;6.748;2023-07-08T21:01:43;8.60;;;6.00;;
20982;SDS011;10650;51.528;6.748;2023-07-08T21:04:10;7.78;;;6.32;;
20982;SDS011;10650;51.528;6.748;2023-07-08T21:06:38;6.90;;;6.20;;
20982;SDS011;10650;51.528;6.748;2023-07-08T21:09:08;7.38;;;6.03;;
20982;SDS011;10650;51.528;6.748;2023-07-08T21:11:40;7.38;;;6.18;;
20982;SDS011;10650;51.528;6.748;2023-07-08T21:14:08;9.52;;;7.28;;
20982;SDS011;10650;51.528;6.748;2023-07-08T21:16:36;10.05;;;7.35;;
20982;SDS011;10650;51.528;6.748;2023-07-08T21:19:04;8.10;;;6.53;;
20982;SDS011;10650;51.528;6.748;2023-07-08T21:21:31;6.95;;;6.15;;
20982;SDS011;10650;51.528;6.748;2023-07-08T21:23:59;9.32;;;6.20;;
20982;SDS011;10650;51.528;6.748;2023-07-08T21:26:28;8.38;;;6.15;;
20982;SDS011;10650;51.528;6.748;2023-07-08T21:28:59;7.18;;;6.00;;
20982;SDS011;10650;51.528;6.748;2023-07-08T21:31:28;7.13;;;6.03;;
20982;SDS011;10650;51.528;6.748;2023-07-08T21:33:56;7.47;;;6.43;;
20982;SDS011;10650;51.528;6.748;2023-07-08T21:36:25;7.00;;;5.85;;
20982;SDS011;10650;51.528;6.748;2023-07-08T21:38:55;10.88;;;6.57;;
20982;SDS011;10650;51.528;6.748;2023-07-08T21:41:25;8.90;;;6.03;;
20982;SDS011;10650;51.528;6.748;2023-07-08T21:43:53;9.50;;;6.20;;
20982;SDS011;10650;51.528;6.748;2023-07-08T21:46:22;9.55;;;6.07;;
20982;SDS011;10650;51.528;6.748;2023-07-08T21:48:50;7.50;;;5.63;;
20982;SDS011;10650;51.528;6.748;2023-07-08T21:51:21;7.28;;;5.55;;
20982;SDS011;10650;51.528;6.748;2023-07-08T21:53:53;7.47;;;5.70;;
20982;SDS011;10650;51.528;6.748;2023-07-08T21:56:21;7.03;;;5.78;;
20982;SDS011;10650;51.528;6.748;2023-07-08T21:58:50;7.28;;;5.60;;
20982;SDS011;10650;51.528;6.748;2023-07-08T22:01:20;6.88;;;5.18;;
20982;SDS011;10650;51.528;6.748;2023-07-08T22:03:51;7.13;;;5.07;;
20982;SDS011;10650;51.528;6.748;2023-07-08T22:06:19;6.38;;;5.40;;
20982;SDS011;10650;51.528;6.748;2023-07-08T22:08:47;7.00;;;5.60;;
20982;SDS011;10650;51.528;6.748;2023-07-08T22:11:16;7.82;;;5.45;;
20982;SDS011;10650;51.528;6.748;2023-07-08T22:13:51;7.03;;;5.43;;
20982;SDS011;10650;51.528;6.748;2023-07-08T22:16:22;7.55;;;5.20;;
20982;SDS011;10650;51.528;6.748;2023-07-08T22:18:52;6.32;;;5.43;;
20982;SDS011;10650;51.528;6.748;2023-07-08T22:21:21;7.28;;;5.30;;
20982;SDS011;10650;51.528;6.748;2023-07-08T22:23:54;7.10;;;5.60;;
20982;SDS011;10650;51.528;6.748;2023-07-08T22:26:23;7.40;;;5.40;;
20982;SDS011;10650;51.528;6.748;2023-07-08T22:28:51;6.28;;;5.03;;
20982;SDS011;10650;51.528;6.748;2023-07-08T22:31:22;6.40;;;5.30;;
20982;SDS011;10650;51.528;6.748;2023-07-08T22:33:53;7.88;;;5.50;;
20982;SDS011;10650;51.528;6.748;2023-07-08T22:36:22;8.52;;;5.35;;
20982;SDS011;10650;51.528;6.748;2023-07-08T22:38:59;7.65;;;5.30;;
20982;SDS011;10650;51.528;6.748;2023-07-08T22:41:32;6.15;;;4.85;;
20982;SDS011;10650;51.528;6.748;2023-07-08T22:44:03;6.50;;;5.05;;
20982;SDS011;10650;51.528;6.748;2023-07-08T22:46:31;6.20;;;5.03;;
20982;SDS011;10650;51.528;6.748;2023-07-08T22:49:00;6.32;;;5.25;;
20982;SDS011;10650;51.528;6.748;2023-07-08T22:51:28;8.57;;;5.38;;
20982;SDS011;10650;51.528;6.748;2023-07-08T22:54:02;7.53;;;5.85;;
20982;SDS011;10650;51.528;6.748;2023-07-08T22:56:31;7.45;;;5.22;;
20982;SDS011;10650;51.528;6.748;2023-07-08T22:58:58;7.10;;;5.80;;
20982;SDS011;10650;51.528;6.748;2023-07-08T23:01:26;7.20;;;5.40;;
20982;SDS011;10650;51.528;6.748;2023-07-08T23:03:54;8.93;;;5.75;;
20982;SDS011;10650;51.528;6.748;2023-07-08T23:06:23;6.57;;;5.22;;
20982;SDS011;10650;51.528;6.748;2023-07-08T23:08:52;9.38;;;5.28;;
20982;SDS011;10650;51.528;6.748;2023-07-08T23:11:21;7.80;;;5.50;;
20982;SDS011;10650;51.528;6.748;2023-07-08T23:13:49;8.18;;;5.50;;
20982;SDS011;10650;51.528;6.748;2023-07-08T23:16:20;7.55;;;5.80;;
20982;SDS011;10650;51.528;6.748;2023-07-08T23:18:53;7.97;;;5.90;;
20982;SDS011;10650;51.528;6.748;2023-07-08T23:21:22;7.82;;;5.63;;
20982;SDS011;10650;51.528;6.748;2023-07-08T23:23:51;8.80;;;5.57;;
20982;SDS011;10650;51.528;6.748;2023-07-08T23:26:20;7.53;;;5.78;;
20982;SDS011;10650;51.528;6.748;2023-07-08T23:28:50;9.15;;;5.68;;
20982;SDS011;10650;51.528;6.748;2023-07-08T23:31:19;8.55;;;6.13;;
20982;SDS011;10650;51.528;6.748;2023-07-08T23:33:47;6.50;;;5.32;;
20982;SDS011;10650;51.528;6.748;2023-07-08T23:36:18;7.22;;;5.20;;
20982;SDS011;10650;51.528;6.748;2023-07-08T23:38:50;7.47;;;5.70;;
20982;SDS011;10650;51.528;6.748;2023-07-08T23:41:17;6.68;;;5.38;;
20982;SDS011;10650;51.528;6.748;2023-07-08T23:43:45;8.50;;;5.55;;
20982;SDS011;10650;51.528;6.748;2023-07-08T23:46:15;6.07;;;5.40;;
20982;SDS011;10650;51.528;6.748;2023-07-08T23:48:49;6.40;;;5.38;;
20982;SDS011;10650;51.528;6.748;2023-07-08T23:51:18;7.78;;;5.75;;
20982;SDS011;10650;51.528;6.748;2023-07-08T23:53:46;7.57;;;5.38;;
20982;SDS011;10650;51.528;6.748;2023-07-08T23:56:16;8.98;;;5.70;;
20982;SDS011;10650;51.528;6.748;2023-07-08T23:58:45;6.45;;;5.43;;
